sensor_id;sensor_type;location;lat;lon;timestamp;pressure;altitude;pressure_sealevel;temperature;humidity
46710;BME280;32442;51.514;-0.178;2023-03-07T00:02:13;99805.06;;;21.90;35.08
46710;BME280;32442;51.514;-0.178;2023-03-07T00:04:43;99805.56;;;21.92;35.49
46710;BME280;32442;51.514;-0.178;2023-03-07T00:07:10;99804.72;;;21.91;35.23
46710;BME280;32442;51.514;-0.178;2023-03-07T00:09:37;99797.66;;;21.94;35.00
46710;BME280;32442;51.514;-0.178;2023-03-07T00:12:05;99796.44;;;21.95;35.34
46710;BME280;32442;51.514;-0.178;2023-03-07T00:14:32;99788.00;;;21.95;35.39
46710;BME280;32442;51.514;-0.178;2023-03-07T00:16:59;99781.22;;;21.96;35.06
46710;BME280;32442;51.514;-0.178;2023-03-07T00:19:26;99780.06;;;21.97;35.12
46710;BME280;32442;51.514;-0.178;2023-03-07T00:21:53;99778.41;;;21.96;35.17
46710;BME280;32442;51.514;-0.178;2023-03-07T00:24:20;99775.16;;;21.94;35.06
46710;BME280;32442;51.514;-0.178;2023-03-07T00:26:47;99767.50;;;21.94;35.04
46710;BME280;32442;51.514;-0.178;2023-03-07T00:29:14;99765.50;;;21.95;34.95
46710;BME280;32442;51.514;-0.178;2023-03-07T00:31:41;99764.19;;;21.92;35.24
46710;BME280;32442;51.514;-0.178;2023-03-07T00:34:08;99776.63;;;21.91;35.33
46710;BME280;32442;51.514;-0.178;2023-03-07T00:36:35;99768.88;;;21.88;34.96
46710;BME280;32442;51.514;-0.178;2023-03-07T00:39:02;99755.97;;;21.87;35.22
46710;BME280;32442;51.514;-0.178;2023-03-07T00:41:29;99761.81;;;21.82;35.03
46710;BME280;32442;51.514;-0.178;2023-03-07T00:43:56;99764.16;;;21.80;35.44
46710;BME280;32442;51.514;-0.178;2023-03-07T00:46:24;99752.31;;;21.74;35.26
46710;BME280;32442;51.514;-0.178;2023-03-07T00:48:51;99756.63;;;21.72;35.16
46710;BME280;32442;51.514;-0.178;2023-03-07T00:51:19;99753.69;;;21.68;35.55
46710;BME280;32442;51.514;-0.178;2023-03-07T00:53:46;99755.22;;;21.66;35.27
46710;BME280;32442;51.514;-0.178;2023-03-07T00:56:14;99752.25;;;21.62;35.24
46710;BME280;32442;51.514;-0.178;2023-03-07T00:58:41;99751.06;;;21.63;35.42
46710;BME280;32442;51.514;-0.178;2023-03-07T01:01:13;99734.91;;;21.60;35.65
46710;BME280;32442;51.514;-0.178;2023-03-07T01:03:40;99732.81;;;21.57;35.46
46710;BME280;32442;51.514;-0.178;2023-03-07T01:06:10;99734.44;;;21.58;35.71
46710;BME280;32442;51.514;-0.178;2023-03-07T01:08:37;99729.50;;;21.55;35.32
46710;BME280;32442;51.514;-0.178;2023-03-07T01:11:05;99726.19;;;21.53;35.79
46710;BME280;32442;51.514;-0.178;2023-03-07T01:13:33;99726.44;;;21.48;35.63
46710;BME280;32442;51.514;-0.178;2023-03-07T01:18:30;99707.81;;;21.44;35.94
46710;BME280;32442;51.514;-0.178;2023-03-07T01:20:57;99718.06;;;21.40;36.14
46710;BME280;32442;51.514;-0.178;2023-03-07T01:23:24;99720.28;;;21.34;36.03
46710;BME280;32442;51.514;-0.178;2023-03-07T01:25:51;99720.13;;;21.30;35.95
46710;BME280;32442;51.514;-0.178;2023-03-07T01:28:18;99715.53;;;21.26;35.92
46710;BME280;32442;51.514;-0.178;2023-03-07T01:30:45;99721.38;;;21.21;35.99
46710;BME280;32442;51.514;-0.178;2023-03-07T01:33:21;99720.91;;;21.19;36.28
46710;BME280;32442;51.514;-0.178;2023-03-07T01:35:49;99696.31;;;21.16;36.50
46710;BME280;32442;51.514;-0.178;2023-03-07T01:38:15;99721.41;;;21.12;36.32
46710;BME280;32442;51.514;-0.178;2023-03-07T01:40:42;99716.00;;;21.07;36.39
46710;BME280;32442;51.514;-0.178;2023-03-07T01:48:09;99709.56;;;21.07;36.30
46710;BME280;32442;51.514;-0.178;2023-03-07T01:50:36;99707.63;;;20.99;36.71
46710;BME280;32442;51.514;-0.178;2023-03-07T01:53:03;99715.59;;;20.97;36.72
46710;BME280;32442;51.514;-0.178;2023-03-07T01:55:31;99713.81;;;20.92;36.82
46710;BME280;32442;51.514;-0.178;2023-03-07T01:58:02;99713.66;;;20.89;37.06
46710;BME280;32442;51.514;-0.178;2023-03-07T02:00:30;99713.50;;;20.85;36.93
46710;BME280;32442;51.514;-0.178;2023-03-07T02:05:28;99718.84;;;20.78;36.82
46710;BME280;32442;51.514;-0.178;2023-03-07T02:07:58;99722.69;;;20.73;36.87
46710;BME280;32442;51.514;-0.178;2023-03-07T02:10:26;99720.56;;;20.70;36.83
46710;BME280;32442;51.514;-0.178;2023-03-07T02:12:53;99724.66;;;20.73;36.69
46710;BME280;32442;51.514;-0.178;2023-03-07T02:15:20;99709.53;;;20.65;37.02
46710;BME280;32442;51.514;-0.178;2023-03-07T02:17:47;99714.31;;;20.65;36.96
46710;BME280;32442;51.514;-0.178;2023-03-07T02:22:43;99706.91;;;20.60;36.76
46710;BME280;32442;51.514;-0.178;2023-03-07T02:25:13;99706.63;;;20.53;36.72
46710;BME280;32442;51.514;-0.178;2023-03-07T02:27:43;99704.84;;;20.49;37.04
46710;BME280;32442;51.514;-0.178;2023-03-07T02:30:11;99706.19;;;20.42;37.24
46710;BME280;32442;51.514;-0.178;2023-03-07T02:32:38;99706.88;;;20.39;37.16
46710;BME280;32442;51.514;-0.178;2023-03-07T02:37:36;99712.16;;;20.32;37.16
46710;BME280;32442;51.514;-0.178;2023-03-07T02:40:05;99703.72;;;20.41;36.80
46710;BME280;32442;51.514;-0.178;2023-03-07T02:42:35;99704.53;;;20.41;37.45
46710;BME280;32442;51.514;-0.178;2023-03-07T02:45:04;99699.09;;;20.36;37.54
46710;BME280;32442;51.514;-0.178;2023-03-07T02:47:31;99703.06;;;20.35;37.44
46710;BME280;32442;51.514;-0.178;2023-03-07T02:49:58;99687.69;;;20.41;37.07
46710;BME280;32442;51.514;-0.178;2023-03-07T02:52:25;99709.13;;;20.46;37.20
46710;BME280;32442;51.514;-0.178;2023-03-07T02:54:54;99700.84;;;20.50;37.28
46710;BME280;32442;51.514;-0.178;2023-03-07T02:57:21;99701.16;;;20.57;37.42
46710;BME280;32442;51.514;-0.178;2023-03-07T02:59:48;99701.78;;;20.62;37.37
46710;BME280;32442;51.514;-0.178;2023-03-07T03:02:15;99703.09;;;20.65;37.08
46710;BME280;32442;51.514;-0.178;2023-03-07T03:04:42;99703.59;;;20.67;37.24
46710;BME280;32442;51.514;-0.178;2023-03-07T03:07:09;99702.56;;;20.71;37.54
46710;BME280;32442;51.514;-0.178;2023-03-07T03:09:36;99705.84;;;20.73;37.08
46710;BME280;32442;51.514;-0.178;2023-03-07T03:12:03;99703.03;;;20.73;37.44
46710;BME280;32442;51.514;-0.178;2023-03-07T03:14:30;99700.34;;;20.77;37.32
46710;BME280;32442;51.514;-0.178;2023-03-07T03:16:58;99700.84;;;20.79;37.11
46710;BME280;32442;51.514;-0.178;2023-03-07T03:19:25;99697.34;;;20.82;37.14
46710;BME280;32442;51.514;-0.178;2023-03-07T03:21:52;99700.28;;;20.85;36.98
46710;BME280;32442;51.514;-0.178;2023-03-07T03:24:18;99705.09;;;20.85;36.91
46710;BME280;32442;51.514;-0.178;2023-03-07T03:26:45;99708.38;;;20.87;36.98
46710;BME280;32442;51.514;-0.178;2023-03-07T03:29:12;99712.00;;;20.88;37.11
46710;BME280;32442;51.514;-0.178;2023-03-07T03:31:40;99713.31;;;20.90;37.28
46710;BME280;32442;51.514;-0.178;2023-03-07T03:34:07;99713.47;;;20.94;36.96
46710;BME280;32442;51.514;-0.178;2023-03-07T03:36:35;99712.78;;;20.97;37.16
46710;BME280;32442;51.514;-0.178;2023-03-07T03:39:02;99709.28;;;21.00;37.17
46710;BME280;32442;51.514;-0.178;2023-03-07T03:41:29;99700.97;;;21.03;37.31
46710;BME280;32442;51.514;-0.178;2023-03-07T03:43:56;99707.91;;;21.06;37.22
46710;BME280;32442;51.514;-0.178;2023-03-07T03:46:23;99700.44;;;21.10;37.49
46710;BME280;32442;51.514;-0.178;2023-03-07T03:48:51;99694.50;;;21.11;37.22
46710;BME280;32442;51.514;-0.178;2023-03-07T03:51:19;99697.47;;;21.15;37.46
46710;BME280;32442;51.514;-0.178;2023-03-07T03:53:46;99700.41;;;21.18;37.36
46710;BME280;32442;51.514;-0.178;2023-03-07T03:56:14;99702.53;;;21.21;37.31
46710;BME280;32442;51.514;-0.178;2023-03-07T03:58:41;99696.56;;;21.23;37.36
46710;BME280;32442;51.514;-0.178;2023-03-07T04:01:10;99692.72;;;21.27;36.91
46710;BME280;32442;51.514;-0.178;2023-03-07T04:03:38;99687.94;;;21.28;36.80
46710;BME280;32442;51.514;-0.178;2023-03-07T04:06:06;99685.63;;;21.30;36.81
46710;BME280;32442;51.514;-0.178;2023-03-07T04:08:33;99691.22;;;21.30;36.69
46710;BME280;32442;51.514;-0.178;2023-03-07T04:11:00;99684.09;;;21.33;36.97
46710;BME280;32442;51.514;-0.178;2023-03-07T04:13:27;99685.75;;;21.34;36.97
46710;BME280;32442;51.514;-0.178;2023-03-07T04:15:54;99684.91;;;21.33;36.58
46710;BME280;32442;51.514;-0.178;2023-03-07T04:18:21;99682.56;;;21.35;36.68
46710;BME280;32442;51.514;-0.178;2023-03-07T04:20:50;99682.56;;;21.35;36.77
46710;BME280;32442;51.514;-0.178;2023-03-07T04:23:18;99678.97;;;21.35;36.62
46710;BME280;32442;51.514;-0.178;2023-03-07T04:25:47;99669.34;;;21.36;36.57
46710;BME280;32442;51.514;-0.178;2023-03-07T04:28:15;99671.81;;;21.37;36.39
46710;BME280;32442;51.514;-0.178;2023-03-07T04:30:42;99661.75;;;21.36;36.67
46710;BME280;32442;51.514;-0.178;2023-03-07T04:33:10;99672.97;;;21.36;36.46
46710;BME280;32442;51.514;-0.178;2023-03-07T04:35:38;99665.72;;;21.35;36.76
46710;BME280;32442;51.514;-0.178;2023-03-07T04:38:05;99669.34;;;21.36;36.31
46710;BME280;32442;51.514;-0.178;2023-03-07T04:40:33;99668.19;;;21.37;36.27
46710;BME280;32442;51.514;-0.178;2023-03-07T04:43:00;99660.91;;;21.36;36.56
46710;BME280;32442;51.514;-0.178;2023-03-07T04:45:27;99655.66;;;21.34;36.63
46710;BME280;32442;51.514;-0.178;2023-03-07T04:47:54;99662.44;;;21.33;36.45
46710;BME280;32442;51.514;-0.178;2023-03-07T04:50:21;99674.50;;;21.34;36.47
46710;BME280;32442;51.514;-0.178;2023-03-07T04:52:48;99676.00;;;21.31;36.23
46710;BME280;32442;51.514;-0.178;2023-03-07T04:55:16;99679.63;;;21.32;36.32
46710;BME280;32442;51.514;-0.178;2023-03-07T04:57:42;99674.72;;;21.28;36.24
46710;BME280;32442;51.514;-0.178;2023-03-07T05:00:10;99670.13;;;21.24;36.66
46710;BME280;32442;51.514;-0.178;2023-03-07T05:02:37;99679.09;;;21.17;36.86
46710;BME280;32442;51.514;-0.178;2023-03-07T05:05:04;99680.13;;;21.13;36.93
46710;BME280;32442;51.514;-0.178;2023-03-07T05:07:32;99670.53;;;21.14;37.16
46710;BME280;32442;51.514;-0.178;2023-03-07T05:09:59;99662.66;;;21.07;36.67
46710;BME280;32442;51.514;-0.178;2023-03-07T05:12:25;99667.44;;;21.07;36.80
46710;BME280;32442;51.514;-0.178;2023-03-07T05:14:52;99672.38;;;21.10;36.75
46710;BME280;32442;51.514;-0.178;2023-03-07T05:17:19;99664.94;;;21.14;36.85
46710;BME280;32442;51.514;-0.178;2023-03-07T05:19:46;99658.81;;;21.12;37.30
46710;BME280;32442;51.514;-0.178;2023-03-07T05:22:13;99666.09;;;21.13;37.24
46710;BME280;32442;51.514;-0.178;2023-03-07T05:24:40;99672.53;;;21.13;37.04
46710;BME280;32442;51.514;-0.178;2023-03-07T05:27:07;99666.56;;;21.15;37.00
46710;BME280;32442;51.514;-0.178;2023-03-07T05:29:34;99666.69;;;21.18;37.27
46710;BME280;32442;51.514;-0.178;2023-03-07T05:32:01;99665.22;;;21.21;37.58
46710;BME280;32442;51.514;-0.178;2023-03-07T05:34:28;99670.47;;;21.22;37.03
46710;BME280;32442;51.514;-0.178;2023-03-07T05:36:55;99668.59;;;21.26;37.25
46710;BME280;32442;51.514;-0.178;2023-03-07T05:39:23;99667.09;;;21.29;37.41
46710;BME280;32442;51.514;-0.178;2023-03-07T05:41:52;99663.13;;;21.30;37.33
46710;BME280;32442;51.514;-0.178;2023-03-07T05:44:20;99667.22;;;21.33;37.28
46710;BME280;32442;51.514;-0.178;2023-03-07T05:46:47;99661.63;;;21.33;37.40
46710;BME280;32442;51.514;-0.178;2023-03-07T05:49:14;99663.25;;;21.34;37.25
46710;BME280;32442;51.514;-0.178;2023-03-07T05:51:41;99655.28;;;21.36;37.29
46710;BME280;32442;51.514;-0.178;2023-03-07T05:54:08;99651.00;;;21.38;37.26
46710;BME280;32442;51.514;-0.178;2023-03-07T05:56:35;99654.63;;;21.39;37.36
46710;BME280;32442;51.514;-0.178;2023-03-07T05:59:03;99662.69;;;21.40;37.22
46710;BME280;32442;51.514;-0.178;2023-03-07T06:01:33;99654.41;;;21.44;37.44
46710;BME280;32442;51.514;-0.178;2023-03-07T06:04:00;99661.31;;;21.46;37.61
46710;BME280;32442;51.514;-0.178;2023-03-07T06:06:27;99660.63;;;21.49;37.62
46710;BME280;32442;51.514;-0.178;2023-03-07T06:08:54;99663.09;;;21.51;37.68
46710;BME280;32442;51.514;-0.178;2023-03-07T06:11:21;99668.00;;;21.54;37.61
46710;BME280;32442;51.514;-0.178;2023-03-07T06:13:48;99653.28;;;21.57;37.27
46710;BME280;32442;51.514;-0.178;2023-03-07T06:16:15;99655.38;;;21.60;37.54
46710;BME280;32442;51.514;-0.178;2023-03-07T06:18:42;99647.44;;;21.62;37.16
46710;BME280;32442;51.514;-0.178;2023-03-07T06:21:09;99637.47;;;21.64;37.52
46710;BME280;32442;51.514;-0.178;2023-03-07T06:23:38;99636.31;;;21.65;37.26
46710;BME280;32442;51.514;-0.178;2023-03-07T06:26:05;99636.78;;;21.67;37.04
46710;BME280;32442;51.514;-0.178;2023-03-07T06:28:34;99637.25;;;21.69;36.79
46710;BME280;32442;51.514;-0.178;2023-03-07T06:31:06;99633.28;;;21.70;37.22
46710;BME280;32442;51.514;-0.178;2023-03-07T06:33:33;99642.53;;;21.71;37.15
46710;BME280;32442;51.514;-0.178;2023-03-07T06:36:03;99642.53;;;21.71;36.80
46710;BME280;32442;51.514;-0.178;2023-03-07T06:38:31;99642.19;;;21.72;36.98
46710;BME280;32442;51.514;-0.178;2023-03-07T06:40:58;99639.84;;;21.74;36.63
46710;BME280;32442;51.514;-0.178;2023-03-07T06:43:25;99639.84;;;21.74;36.69
46710;BME280;32442;51.514;-0.178;2023-03-07T06:45:52;99634.22;;;21.74;36.37
46710;BME280;32442;51.514;-0.178;2023-03-07T06:48:20;99639.47;;;21.76;36.72
46710;BME280;32442;51.514;-0.178;2023-03-07T06:50:47;99648.63;;;21.73;36.21
46710;BME280;32442;51.514;-0.178;2023-03-07T06:53:15;99645.81;;;21.73;36.47
46710;BME280;32442;51.514;-0.178;2023-03-07T06:55:42;99657.88;;;21.73;36.66
46710;BME280;32442;51.514;-0.178;2023-03-07T06:58:09;99655.91;;;21.74;36.48
46710;BME280;32442;51.514;-0.178;2023-03-07T07:00:36;99661.97;;;21.76;36.07
46710;BME280;32442;51.514;-0.178;2023-03-07T07:03:03;99654.94;;;21.70;36.37
46710;BME280;32442;51.514;-0.178;2023-03-07T07:05:31;99656.94;;;21.69;36.62
46710;BME280;32442;51.514;-0.178;2023-03-07T07:07:58;99656.59;;;21.71;36.57
46710;BME280;32442;51.514;-0.178;2023-03-07T07:10:25;99649.31;;;21.70;36.19
46710;BME280;32442;51.514;-0.178;2023-03-07T07:12:52;99653.63;;;21.67;36.21
46710;BME280;32442;51.514;-0.178;2023-03-07T07:15:22;99652.03;;;21.66;36.17
46710;BME280;32442;51.514;-0.178;2023-03-07T07:17:50;99658.69;;;21.62;36.96
46710;BME280;32442;51.514;-0.178;2023-03-07T07:20:17;99659.03;;;21.60;37.08
46710;BME280;32442;51.514;-0.178;2023-03-07T07:22:45;99656.22;;;21.60;37.34
46710;BME280;32442;51.514;-0.178;2023-03-07T07:25:12;99644.84;;;21.57;36.80
46710;BME280;32442;51.514;-0.178;2023-03-07T07:27:39;99658.06;;;21.56;36.98
46710;BME280;32442;51.514;-0.178;2023-03-07T07:30:07;99660.41;;;21.54;36.56
46710;BME280;32442;51.514;-0.178;2023-03-07T07:32:34;99661.56;;;21.53;36.70
46710;BME280;32442;51.514;-0.178;2023-03-07T07:35:01;99663.13;;;21.09;33.13
46710;BME280;32442;51.514;-0.178;2023-03-07T07:37:29;99669.06;;;21.08;34.00
46710;BME280;32442;51.514;-0.178;2023-03-07T07:39:56;99658.19;;;21.06;34.53
46710;BME280;32442;51.514;-0.178;2023-03-07T07:42:23;99665.66;;;21.02;34.72
46710;BME280;32442;51.514;-0.178;2023-03-07T07:44:50;99677.72;;;21.03;34.34
46710;BME280;32442;51.514;-0.178;2023-03-07T07:47:17;99671.28;;;21.02;34.78
46710;BME280;32442;51.514;-0.178;2023-03-07T07:49:44;99671.28;;;21.02;34.46
46710;BME280;32442;51.514;-0.178;2023-03-07T07:52:14;99666.81;;;21.01;34.38
46710;BME280;32442;51.514;-0.178;2023-03-07T07:54:41;99671.63;;;21.01;34.77
46710;BME280;32442;51.514;-0.178;2023-03-07T07:57:07;99674.63;;;20.96;34.32
46710;BME280;32442;51.514;-0.178;2023-03-07T07:59:35;99666.06;;;20.92;34.62
46710;BME280;32442;51.514;-0.178;2023-03-07T08:02:02;99679.03;;;20.84;34.88
46710;BME280;32442;51.514;-0.178;2023-03-07T08:04:31;99678.31;;;20.88;34.57
46710;BME280;32442;51.514;-0.178;2023-03-07T08:07:01;99676.69;;;20.86;35.46
46710;BME280;32442;51.514;-0.178;2023-03-07T08:09:28;99681.97;;;20.88;34.75
46710;BME280;32442;51.514;-0.178;2023-03-07T08:11:55;99684.47;;;20.81;34.72
46710;BME280;32442;51.514;-0.178;2023-03-07T08:14:22;99686.69;;;20.75;34.68
46710;BME280;32442;51.514;-0.178;2023-03-07T08:16:50;99683.78;;;20.63;34.91
46710;BME280;32442;51.514;-0.178;2023-03-07T08:19:17;99684.72;;;20.67;34.66
46710;BME280;32442;51.514;-0.178;2023-03-07T08:21:44;99682.34;;;20.57;35.04
46710;BME280;32442;51.514;-0.178;2023-03-07T08:24:12;99680.38;;;20.49;35.04
46710;BME280;32442;51.514;-0.178;2023-03-07T08:26:39;99692.94;;;20.52;34.81
46710;BME280;32442;51.514;-0.178;2023-03-07T08:29:07;99689.50;;;20.46;35.27
46710;BME280;32442;51.514;-0.178;2023-03-07T08:31:34;99682.41;;;20.49;35.37
46710;BME280;32442;51.514;-0.178;2023-03-07T08:34:02;99684.69;;;20.47;35.25
46710;BME280;32442;51.514;-0.178;2023-03-07T08:36:29;99678.94;;;20.43;35.44
46710;BME280;32442;51.514;-0.178;2023-03-07T08:38:56;99679.47;;;20.36;35.49
46710;BME280;32442;51.514;-0.178;2023-03-07T08:41:26;99679.00;;;20.34;35.24
46710;BME280;32442;51.514;-0.178;2023-03-07T08:43:54;99682.13;;;20.33;35.45
46710;BME280;32442;51.514;-0.178;2023-03-07T08:46:22;99684.94;;;20.33;35.34
46710;BME280;32442;51.514;-0.178;2023-03-07T08:48:50;99685.78;;;20.25;35.32
46710;BME280;32442;51.514;-0.178;2023-03-07T08:51:19;99684.13;;;20.24;35.50
46710;BME280;32442;51.514;-0.178;2023-03-07T08:53:50;99690.44;;;20.21;35.46
46710;BME280;32442;51.514;-0.178;2023-03-07T08:56:17;99685.97;;;20.20;35.48
46710;BME280;32442;51.514;-0.178;2023-03-07T08:58:45;99697.88;;;20.17;35.23
46710;BME280;32442;51.514;-0.178;2023-03-07T09:01:15;99701.31;;;20.14;35.32
46710;BME280;32442;51.514;-0.178;2023-03-07T09:03:42;99695.06;;;20.08;35.30
46710;BME280;32442;51.514;-0.178;2023-03-07T09:06:14;99695.75;;;20.05;35.48
46710;BME280;32442;51.514;-0.178;2023-03-07T09:08:43;99698.41;;;20.02;35.58
46710;BME280;32442;51.514;-0.178;2023-03-07T09:11:11;99697.91;;;19.99;35.46
46710;BME280;32442;51.514;-0.178;2023-03-07T09:13:38;99687.22;;;19.93;35.65
46710;BME280;32442;51.514;-0.178;2023-03-07T09:16:20;99700.28;;;19.89;35.49
46710;BME280;32442;51.514;-0.178;2023-03-07T09:18:48;99687.41;;;19.88;35.31
46710;BME280;32442;51.514;-0.178;2023-03-07T09:21:15;99695.16;;;19.82;35.52
46710;BME280;32442;51.514;-0.178;2023-03-07T09:23:43;99693.03;;;19.79;35.77
46710;BME280;32442;51.514;-0.178;2023-03-07T09:26:13;99688.59;;;19.78;35.75
46710;BME280;32442;51.514;-0.178;2023-03-07T09:28:41;99696.50;;;19.76;35.43
46710;BME280;32442;51.514;-0.178;2023-03-07T09:31:09;99689.28;;;19.75;35.34
46710;BME280;32442;51.514;-0.178;2023-03-07T09:33:36;99696.34;;;19.73;35.42
46710;BME280;32442;51.514;-0.178;2023-03-07T09:36:04;99690.91;;;19.68;35.71
46710;BME280;32442;51.514;-0.178;2023-03-07T09:38:32;99693.25;;;19.66;35.92
46710;BME280;32442;51.514;-0.178;2023-03-07T09:41:01;99696.22;;;19.61;35.58
46710;BME280;32442;51.514;-0.178;2023-03-07T09:43:39;99702.81;;;19.56;35.85
46710;BME280;32442;51.514;-0.178;2023-03-07T09:53:41;99699.38;;;19.50;36.01
46710;BME280;32442;51.514;-0.178;2023-03-07T09:58:42;99691.44;;;19.61;36.20
46710;BME280;32442;51.514;-0.178;2023-03-07T10:01:13;99686.31;;;19.63;35.95
46710;BME280;32442;51.514;-0.178;2023-03-07T10:03:45;99686.50;;;19.67;35.92
46710;BME280;32442;51.514;-0.178;2023-03-07T10:08:49;99685.13;;;19.73;35.83
46710;BME280;32442;51.514;-0.178;2023-03-07T10:11:21;99693.88;;;19.80;35.56
46710;BME280;32442;51.514;-0.178;2023-03-07T10:28:48;99676.59;;;20.16;35.50
46710;BME280;32442;51.514;-0.178;2023-03-07T10:31:20;99684.31;;;20.19;35.56
46710;BME280;32442;51.514;-0.178;2023-03-07T10:33:52;99687.63;;;20.21;35.47
46710;BME280;32442;51.514;-0.178;2023-03-07T10:36:24;99687.63;;;20.21;35.26
46710;BME280;32442;51.514;-0.178;2023-03-07T10:38:56;99685.66;;;20.21;35.49
46710;BME280;32442;51.514;-0.178;2023-03-07T10:41:27;99687.63;;;20.21;35.31
46710;BME280;32442;51.514;-0.178;2023-03-07T10:43:54;99684.63;;;20.26;35.18
46710;BME280;32442;51.514;-0.178;2023-03-07T10:46:24;99687.25;;;20.31;35.53
46710;BME280;32442;51.514;-0.178;2023-03-07T10:53:51;99683.75;;;20.42;36.03
46710;BME280;32442;51.514;-0.178;2023-03-07T10:56:19;99681.91;;;20.47;35.95
46710;BME280;32442;51.514;-0.178;2023-03-07T11:01:22;99684.19;;;20.53;36.52
46710;BME280;32442;51.514;-0.178;2023-03-07T11:06:25;99691.72;;;20.61;36.24
46710;BME280;32442;51.514;-0.178;2023-03-07T11:08:52;99692.69;;;20.65;36.64
46710;BME280;32442;51.514;-0.178;2023-03-07T11:11:22;99698.44;;;20.69;36.51
46710;BME280;32442;51.514;-0.178;2023-03-07T11:16:21;99701.19;;;20.77;36.46
46710;BME280;32442;51.514;-0.178;2023-03-07T11:18:49;99695.69;;;20.81;36.38
46710;BME280;32442;51.514;-0.178;2023-03-07T11:23:46;99704.75;;;20.86;36.36
46710;BME280;32442;51.514;-0.178;2023-03-07T11:26:24;99707.34;;;20.92;36.20
46710;BME280;32442;51.514;-0.178;2023-03-07T11:31:27;99717.25;;;20.98;36.57
46710;BME280;32442;51.514;-0.178;2023-03-07T11:34:00;99713.75;;;21.01;36.05
46710;BME280;32442;51.514;-0.178;2023-03-07T11:36:34;99717.84;;;21.03;36.29
46710;BME280;32442;51.514;-0.178;2023-03-07T11:51:38;99730.03;;;21.16;36.28
46710;BME280;32442;51.514;-0.178;2023-03-07T11:54:14;99734.13;;;21.18;36.08
46710;BME280;32442;51.514;-0.178;2023-03-07T11:56:46;99732.97;;;21.19;36.28
46710;BME280;32442;51.514;-0.178;2023-03-07T12:21:44;99727.66;;;21.18;36.24
46710;BME280;32442;51.514;-0.178;2023-03-07T12:26:49;99722.25;;;21.13;35.92
46710;BME280;32442;51.514;-0.178;2023-03-07T12:29:23;99726.06;;;21.08;36.36
46710;BME280;32442;51.514;-0.178;2023-03-07T12:31:56;99721.13;;;21.05;36.21
46710;BME280;32442;51.514;-0.178;2023-03-07T12:39:30;99732.03;;;21.07;36.55
46710;BME280;32442;51.514;-0.178;2023-03-07T12:46:59;99738.19;;;21.00;36.76
46710;BME280;32442;51.514;-0.178;2023-03-07T12:52:17;99726.94;;;21.00;37.19
46710;BME280;32442;51.514;-0.178;2023-03-07T12:54:53;99738.88;;;20.97;37.02
46710;BME280;32442;51.514;-0.178;2023-03-07T12:57:25;99732.25;;;21.02;36.34
46710;BME280;32442;51.514;-0.178;2023-03-07T12:59:56;99738.69;;;21.02;36.39
46710;BME280;32442;51.514;-0.178;2023-03-07T13:04:55;99740.78;;;21.05;36.30
46710;BME280;32442;51.514;-0.178;2023-03-07T13:07:24;99737.28;;;21.08;36.53
46710;BME280;32442;51.514;-0.178;2023-03-07T13:09:56;99745.88;;;21.12;36.40
46710;BME280;32442;51.514;-0.178;2023-03-07T13:19:54;99761.50;;;21.21;36.21
46710;BME280;32442;51.514;-0.178;2023-03-07T13:24:58;99765.78;;;21.27;36.58
46710;BME280;32442;51.514;-0.178;2023-03-07T13:27:44;99757.47;;;21.31;36.20
46710;BME280;32442;51.514;-0.178;2023-03-07T13:35:11;99765.69;;;21.36;36.35
46710;BME280;32442;51.514;-0.178;2023-03-07T13:47:41;99788.88;;;21.33;35.15
46710;BME280;32442;51.514;-0.178;2023-03-07T13:52:41;99781.66;;;21.23;34.84
46710;BME280;32442;51.514;-0.178;2023-03-07T13:55:13;99789.13;;;21.19;34.65
46710;BME280;32442;51.514;-0.178;2023-03-07T13:57:54;99785.69;;;21.14;34.63
46710;BME280;32442;51.514;-0.178;2023-03-07T14:00:24;99779.25;;;21.13;34.79
46710;BME280;32442;51.514;-0.178;2023-03-07T14:02:54;99789.03;;;21.07;34.46
46710;BME280;32442;51.514;-0.178;2023-03-07T14:05:22;99791.84;;;21.07;34.36
46710;BME280;32442;51.514;-0.178;2023-03-07T14:07:50;99790.53;;;21.05;34.08
46710;BME280;32442;51.514;-0.178;2023-03-07T14:10:22;99798.81;;;21.01;34.20
46710;BME280;32442;51.514;-0.178;2023-03-07T14:25:23;99803.31;;;20.94;34.47
46710;BME280;32442;51.514;-0.178;2023-03-07T14:30:22;99802.00;;;20.91;34.21
46710;BME280;32442;51.514;-0.178;2023-03-07T14:32:50;99799.75;;;20.84;34.68
46710;BME280;32442;51.514;-0.178;2023-03-07T14:37:48;99808.16;;;20.84;34.71
46710;BME280;32442;51.514;-0.178;2023-03-07T14:40:20;99812.13;;;20.83;34.42
46710;BME280;32442;51.514;-0.178;2023-03-07T14:45:29;99806.97;;;20.85;34.50
46710;BME280;32442;51.514;-0.178;2023-03-07T14:50:33;99803.16;;;20.90;34.25
46710;BME280;32442;51.514;-0.178;2023-03-07T14:53:09;99807.34;;;20.84;33.96
46710;BME280;32442;51.514;-0.178;2023-03-07T14:55:43;99810.50;;;20.36;30.55
46710;BME280;32442;51.514;-0.178;2023-03-07T14:58:14;99799.00;;;19.94;29.81
46710;BME280;32442;51.514;-0.178;2023-03-07T15:00:42;99795.50;;;20.32;30.85
46710;BME280;32442;51.514;-0.178;2023-03-07T15:03:11;99801.03;;;20.49;31.58
46710;BME280;32442;51.514;-0.178;2023-03-07T15:10:43;99806.25;;;20.68;32.84
46710;BME280;32442;51.514;-0.178;2023-03-07T15:13:20;99812.81;;;20.72;32.56
46710;BME280;32442;51.514;-0.178;2023-03-07T15:15:50;99805.72;;;20.74;32.87
46710;BME280;32442;51.514;-0.178;2023-03-07T15:18:21;99789.72;;;20.75;33.00
46710;BME280;32442;51.514;-0.178;2023-03-07T15:20:51;99796.81;;;20.72;32.79
46710;BME280;32442;51.514;-0.178;2023-03-07T15:23:21;99797.31;;;20.74;32.89
46710;BME280;32442;51.514;-0.178;2023-03-07T15:25:50;99792.84;;;20.73;33.18
46710;BME280;32442;51.514;-0.178;2023-03-07T15:28:19;99784.44;;;20.73;33.28
46710;BME280;32442;51.514;-0.178;2023-03-07T15:30:47;99789.06;;;20.69;33.43
46710;BME280;32442;51.514;-0.178;2023-03-07T15:36:03;99791.25;;;20.64;33.23
46710;BME280;32442;51.514;-0.178;2023-03-07T15:38:31;99787.59;;;20.63;33.07
46710;BME280;32442;51.514;-0.178;2023-03-07T15:40:59;99783.19;;;20.62;33.52
46710;BME280;32442;51.514;-0.178;2023-03-07T15:43:27;99785.50;;;20.60;33.35
46710;BME280;32442;51.514;-0.178;2023-03-07T15:46:01;99793.41;;;20.58;33.54
46710;BME280;32442;51.514;-0.178;2023-03-07T15:51:00;99804.50;;;20.55;33.63